WMT9020 LROP-LPPR
Flight info
| Callsign | WMT9020 |
|---|---|
| Flight time | N/A |
| Altitude | 32000 |
| Route | POLUN DCT VIKBI DCT ELDET DCT LELTI DCT ANASA DCT ROTAR/N0457F330 DCT RONOP/N0456F340 DCT GIGUS DCT BALSI DCT GIPNO DCT RUSIT/N0454F310 DCT ESIDA DCT LERGA DCT MINSO/N0456F330 DCT NARAK DCT AGN DCT PIPOR L866 PPN N976 ZMR L155 ADORO/N0453F340 DCT ELGIX |
| Aircraft | A321/M-SDE3FGHIRWY/LB1 |
Departure
| Time | N/A |
|---|---|
| Airport | Bucharest Henri Coandă International Airport (LROP) |
Arrival
| Time | 2026-05-05 18:53 |
|---|---|
| Airport | Francisco de Sá Carneiro Airport (LPPR) |
| Time | Latitude | Longitude | Altitude | Speed | Heading |
|---|---|---|---|---|---|
| 2026-05-05 18:26 | 41.50218 | -6.02773 | 33987 ft | 399 kts | 266° |
| 2026-05-05 18:27 | 41.49943 | -6.06457 | 33986 ft | 399 kts | 266° |
| 2026-05-05 18:27 | 41.49364 | -6.13840 | 33992 ft | 401 kts | 262° |
| 2026-05-05 18:28 | 41.47573 | -6.24728 | 33014 ft | 399 kts | 260° |
| 2026-05-05 18:28 | 41.46294 | -6.31981 | 32994 ft | 404 kts | 259° |
| 2026-05-05 18:29 | 41.45007 | -6.39329 | 32999 ft | 404 kts | 260° |
| 2026-05-05 18:29 | 41.43745 | -6.46638 | 32999 ft | 405 kts | 260° |
| 2026-05-05 18:30 | 41.42478 | -6.53958 | 32995 ft | 405 kts | 259° |
| 2026-05-05 18:30 | 41.41207 | -6.61230 | 33000 ft | 406 kts | 259° |
| 2026-05-05 18:31 | 41.39917 | -6.68559 | 33012 ft | 406 kts | 259° |
| 2026-05-05 18:31 | 41.39274 | -6.72213 | 32584 ft | 402 kts | 259° |
| 2026-05-05 18:31 | 41.38634 | -6.75847 | 30905 ft | 408 kts | 260° |
| 2026-05-05 18:32 | 41.37984 | -6.79527 | 29643 ft | 405 kts | 260° |
| 2026-05-05 18:32 | 41.37353 | -6.83066 | 29328 ft | 378 kts | 260° |
| 2026-05-05 18:32 | 41.36757 | -6.86381 | 29078 ft | 364 kts | 260° |
| 2026-05-05 18:32 | 41.36175 | -6.89647 | 28629 ft | 361 kts | 261° |
| 2026-05-05 18:33 | 41.35600 | -6.92893 | 28192 ft | 359 kts | 260° |
| 2026-05-05 18:33 | 41.35032 | -6.96120 | 27755 ft | 357 kts | 261° |
| 2026-05-05 18:33 | 41.34466 | -6.99332 | 27311 ft | 355 kts | 261° |
| 2026-05-05 18:33 | 41.33900 | -7.02521 | 26895 ft | 353 kts | 261° |
| 2026-05-05 18:34 | 41.33329 | -7.05694 | 26463 ft | 352 kts | 261° |
| 2026-05-05 18:34 | 41.32760 | -7.08850 | 26037 ft | 350 kts | 261° |
| 2026-05-05 18:34 | 41.32194 | -7.11993 | 25606 ft | 349 kts | 261° |
| 2026-05-05 18:34 | 41.31632 | -7.15124 | 25197 ft | 347 kts | 261° |
| 2026-05-05 18:35 | 41.31072 | -7.18235 | 24782 ft | 346 kts | 261° |
| 2026-05-05 18:35 | 41.30507 | -7.21347 | 24372 ft | 345 kts | 261° |
| 2026-05-05 18:35 | 41.29945 | -7.24435 | 23972 ft | 343 kts | 261° |
| 2026-05-05 18:35 | 41.29383 | -7.27517 | 23568 ft | 342 kts | 261° |
| 2026-05-05 18:36 | 41.28824 | -7.30581 | 23139 ft | 340 kts | 261° |
| 2026-05-05 18:36 | 41.28267 | -7.33630 | 22771 ft | 339 kts | 261° |
| 2026-05-05 18:36 | 41.27713 | -7.36677 | 22379 ft | 337 kts | 261° |
| 2026-05-05 18:36 | 41.27164 | -7.39710 | 22006 ft | 336 kts | 261° |
| 2026-05-05 18:37 | 41.26618 | -7.42720 | 21638 ft | 335 kts | 261° |
| 2026-05-05 18:37 | 41.26067 | -7.45730 | 21272 ft | 334 kts | 261° |
| 2026-05-05 18:37 | 41.25516 | -7.48726 | 20902 ft | 333 kts | 261° |
| 2026-05-05 18:37 | 41.24976 | -7.51671 | 20540 ft | 332 kts | 261° |
| 2026-05-05 18:38 | 41.24429 | -7.54655 | 20149 ft | 331 kts | 261° |
| 2026-05-05 18:38 | 41.23883 | -7.57621 | 19774 ft | 330 kts | 261° |
| 2026-05-05 18:38 | 41.23336 | -7.60578 | 19384 ft | 329 kts | 261° |
| 2026-05-05 18:38 | 41.22791 | -7.63523 | 18991 ft | 328 kts | 261° |
| 2026-05-05 18:39 | 41.22248 | -7.66459 | 18593 ft | 327 kts | 261° |
| 2026-05-05 18:39 | 41.21705 | -7.69392 | 18172 ft | 326 kts | 261° |
| 2026-05-05 18:39 | 41.21162 | -7.72307 | 17756 ft | 325 kts | 261° |
| 2026-05-05 18:39 | 41.20621 | -7.75208 | 17343 ft | 323 kts | 261° |
| 2026-05-05 18:40 | 41.20080 | -7.78102 | 16938 ft | 322 kts | 260° |
| 2026-05-05 18:40 | 41.19542 | -7.80978 | 16527 ft | 321 kts | 260° |
| 2026-05-05 18:40 | 41.19005 | -7.83844 | 16119 ft | 320 kts | 260° |
| 2026-05-05 18:40 | 41.18467 | -7.86711 | 15711 ft | 318 kts | 260° |
| 2026-05-05 18:41 | 41.17852 | -7.89532 | 15292 ft | 320 kts | 252° |
| 2026-05-05 18:41 | 41.16946 | -7.92227 | 14852 ft | 320 kts | 249° |
| 2026-05-05 18:41 | 41.16011 | -7.94910 | 14424 ft | 319 kts | 248° |
| 2026-05-05 18:41 | 41.15082 | -7.97581 | 13994 ft | 319 kts | 249° |
| 2026-05-05 18:42 | 41.14155 | -8.00248 | 13525 ft | 318 kts | 248° |
| 2026-05-05 18:42 | 41.13232 | -8.02907 | 13095 ft | 317 kts | 249° |
| 2026-05-05 18:42 | 41.12314 | -8.05554 | 12672 ft | 315 kts | 249° |
| 2026-05-05 18:42 | 41.11399 | -8.08184 | 12242 ft | 313 kts | 249° |
| 2026-05-05 18:43 | 41.10486 | -8.10800 | 11820 ft | 312 kts | 248° |
| 2026-05-05 18:43 | 41.09578 | -8.13402 | 11402 ft | 310 kts | 249° |
| 2026-05-05 18:43 | 41.08980 | -8.15117 | 11107 ft | 309 kts | 248° |
| 2026-05-05 18:43 | 41.08077 | -8.17702 | 10716 ft | 308 kts | 249° |
| 2026-05-05 18:44 | 41.07182 | -8.20259 | 10494 ft | 301 kts | 248° |
| 2026-05-05 18:44 | 41.06314 | -8.22736 | 10332 ft | 292 kts | 249° |
| 2026-05-05 18:44 | 41.05472 | -8.25142 | 10228 ft | 286 kts | 249° |
| 2026-05-05 18:44 | 41.04634 | -8.27536 | 10166 ft | 287 kts | 249° |
| 2026-05-05 18:45 | 41.03794 | -8.29936 | 10066 ft | 287 kts | 249° |
| 2026-05-05 18:45 | 41.02976 | -8.32369 | 9606 ft | 290 kts | 255° |
| 2026-05-05 18:45 | 41.02494 | -8.34923 | 9246 ft | 285 kts | 262° |
| 2026-05-05 18:45 | 41.02082 | -8.37496 | 8885 ft | 283 kts | 261° |
| 2026-05-05 18:46 | 41.01672 | -8.40036 | 8522 ft | 281 kts | 261° |
| 2026-05-05 18:46 | 41.01264 | -8.42541 | 7862 ft | 277 kts | 261° |
| 2026-05-05 18:46 | 41.00860 | -8.45019 | 7211 ft | 273 kts | 261° |
| 2026-05-05 18:46 | 41.00463 | -8.47466 | 6742 ft | 271 kts | 261° |
| 2026-05-05 18:47 | 41.00073 | -8.49909 | 6244 ft | 270 kts | 262° |
| 2026-05-05 18:47 | 40.99706 | -8.52341 | 5768 ft | 274 kts | 262° |
| 2026-05-05 18:47 | 40.99348 | -8.54774 | 5271 ft | 264 kts | 263° |
| 2026-05-05 18:47 | 40.99039 | -8.57144 | 4800 ft | 251 kts | 272° |
| 2026-05-05 18:48 | 40.99321 | -8.59293 | 4363 ft | 233 kts | 298° |
| 2026-05-05 18:48 | 41.00219 | -8.60962 | 3989 ft | 216 kts | 320° |
| 2026-05-05 18:48 | 41.01468 | -8.61949 | 3578 ft | 205 kts | 342° |
| 2026-05-05 18:48 | 41.02840 | -8.62346 | 3411 ft | 202 kts | 349° |
| 2026-05-05 18:49 | 41.04227 | -8.62710 | 3336 ft | 202 kts | 349° |
| 2026-05-05 18:49 | 41.05604 | -8.63080 | 3254 ft | 202 kts | 348° |
| 2026-05-05 18:49 | 41.06978 | -8.63449 | 3167 ft | 202 kts | 348° |
| 2026-05-05 18:49 | 41.08355 | -8.63811 | 3068 ft | 202 kts | 349° |
| 2026-05-05 18:50 | 41.09740 | -8.64171 | 2975 ft | 202 kts | 349° |
| 2026-05-05 18:50 | 41.11115 | -8.64528 | 2673 ft | 200 kts | 348° |
| 2026-05-05 18:50 | 41.12476 | -8.64880 | 2400 ft | 199 kts | 348° |
| 2026-05-05 18:50 | 41.13825 | -8.65230 | 2149 ft | 192 kts | 348° |
| 2026-05-05 18:51 | 41.15055 | -8.65549 | 1924 ft | 168 kts | 348° |
| 2026-05-05 18:51 | 41.16133 | -8.65830 | 1684 ft | 151 kts | 348° |
| 2026-05-05 18:51 | 41.17148 | -8.66095 | 1482 ft | 147 kts | 348° |
| 2026-05-05 18:51 | 41.18143 | -8.66357 | 1286 ft | 145 kts | 348° |
| 2026-05-05 18:52 | 41.19126 | -8.66618 | 1123 ft | 143 kts | 348° |
| 2026-05-05 18:52 | 41.20098 | -8.66867 | 937 ft | 144 kts | 348° |
| 2026-05-05 18:52 | 41.21082 | -8.67126 | 745 ft | 144 kts | 347° |
| 2026-05-05 18:52 | 41.22063 | -8.67390 | 549 ft | 143 kts | 348° |
| 2026-05-05 18:53 | 41.23038 | -8.67651 | 335 ft | 143 kts | 348° |
| 2026-05-05 18:53 | 41.23989 | -8.67910 | 237 ft | 129 kts | 347° |
| 2026-05-05 18:53 | 41.24735 | -8.68102 | 237 ft | 85 kts | 349° |
| 2026-05-05 18:53 | 41.25078 | -8.68163 | 234 ft | 27 kts | 4° |
| 2026-05-05 18:54 | 41.25237 | -8.68123 | 236 ft | 8 kts | 17° |
| 2026-05-05 18:54 | 41.25285 | -8.68089 | 234 ft | 8 kts | 44° |
| 2026-05-05 18:54 | 41.25279 | -8.68024 | 235 ft | 8 kts | 140° |
| 2026-05-05 18:54 | 41.25225 | -8.68001 | 235 ft | 9 kts | 167° |
| 2026-05-05 18:55 | 41.25159 | -8.67983 | 235 ft | 12 kts | 169° |
| 2026-05-05 18:55 | 41.25052 | -8.67956 | 235 ft | 17 kts | 169° |
| 2026-05-05 18:55 | 41.24931 | -8.67924 | 235 ft | 19 kts | 169° |
| 2026-05-05 18:55 | 41.24808 | -8.67860 | 238 ft | 20 kts | 151° |
| 2026-05-05 18:56 | 41.24678 | -8.67798 | 235 ft | 20 kts | 167° |
| 2026-05-05 18:56 | 41.24538 | -8.67766 | 235 ft | 21 kts | 170° |
| 2026-05-05 18:56 | 41.24392 | -8.67733 | 235 ft | 22 kts | 171° |
| 2026-05-05 18:56 | 41.24280 | -8.67664 | 239 ft | 12 kts | 128° |
| 2026-05-05 18:57 | 41.24223 | -8.67583 | 235 ft | 12 kts | 148° |
| 2026-05-05 18:57 | 41.24137 | -8.67558 | 235 ft | 13 kts | 170° |
| 2026-05-05 18:57 | 41.24044 | -8.67534 | 238 ft | 14 kts | 168° |
| 2026-05-05 18:58 | 41.23838 | -8.67478 | 235 ft | 16 kts | 168° |
| 2026-05-05 18:58 | 41.23760 | -8.67455 | 239 ft | 10 kts | 157° |